Time;durP1;ratioP1;P1;durP2;ratioP2;P2;SDS_P1;SDS_P2;PMS_P1;PMS_P2;Temp;Humidity;BMP_temperature;BMP_pressure;BME280_temperature;BME280_humidity;BME280_pressure;Samples;Min_cycle;Max_cycle;Signal;HPM_P1;HPM_P2
2023/11/25 00:01:04;;;;;;;5.65;1.70;;;3.20;74.60;;;;;;4941253;29;20059;-89
2023/11/25 00:03:31;;;;;;;6.87;1.70;;;3.10;74.60;;;;;;4967673;28;20043;-88
2023/11/25 00:05:59;;;;;;;6.45;2.08;;;3.10;74.80;;;;;;4959619;28;20043;-88
2023/11/25 01:40:52;;;;;;;4.45;1.70;;;2.10;79.00;;;;;;5148510;27;20456;-94
2023/11/25 01:43:23;;;;;;;5.30;1.20;;;3.00;75.80;;;;;;5114435;28;20047;-93
2023/11/25 01:45:52;;;;;;;4.22;1.10;;;2.90;75.90;;;;;;5131242;27;20075;-93
2023/11/25 01:48:19;;;;;;;5.68;1.20;;;3.00;76.00;;;;;;5131279;27;20103;-93
2023/11/25 01:50:47;;;;;;;5.22;1.50;;;2.90;76.50;;;;;;5131002;27;20045;-93
2023/11/25 01:53:19;;;;;;;4.55;1.05;;;2.90;76.80;;;;;;5131013;27;20048;-93
2023/11/25 01:55:48;;;;;;;4.30;1.20;;;2.90;76.70;;;;;;5131253;27;20043;-93
2023/11/25 01:58:16;;;;;;;4.13;1.40;;;2.80;76.90;;;;;;5131129;27;20079;-93
2023/11/25 02:00:45;;;;;;;5.07;1.38;;;2.70;76.90;;;;;;5130807;27;20050;-94
2023/11/25 02:03:13;;;;;;;3.47;0.98;;;2.90;77.50;;;;;;5131031;27;20047;-93
2023/11/25 02:05:42;;;;;;;4.38;1.52;;;2.80;77.20;;;;;;5130807;27;20039;-94
2023/11/25 02:08:09;;;;;;;4.47;1.03;;;2.80;77.60;;;;;;5130827;27;20508;-94
2023/11/25 02:10:39;;;;;;;7.25;1.02;;;2.80;77.90;;;;;;5130820;27;20395;-94
2023/11/25 02:13:09;;;;;;;4.43;1.10;;;2.80;78.00;;;;;;5130680;27;20051;-91
2023/11/25 02:15:37;;;;;;;5.93;1.23;;;2.70;78.00;;;;;;5130813;27;20059;-94
2023/11/25 02:18:04;;;;;;;3.70;1.38;;;2.70;78.40;;;;;;5113475;28;20130;-94
2023/11/25 02:20:36;;;;;;;4.33;1.10;;;2.60;78.70;;;;;;5130894;27;20044;-93
2023/11/25 02:23:04;;;;;;;6.10;1.15;;;2.60;79.00;;;;;;5130782;27;20043;-94
2023/11/25 02:25:32;;;;;;;5.80;1.35;;;2.60;79.60;;;;;;5114362;28;20040;-94
2023/11/25 02:27:59;;;;;;;4.82;1.30;;;2.70;79.80;;;;;;5131274;27;20044;-94
2023/11/25 02:30:26;;;;;;;3.17;1.10;;;2.80;79.80;;;;;;5114023;28;20047;-93
2023/11/25 02:32:53;;;;;;;6.97;1.30;;;2.90;79.70;;;;;;5130537;27;20043;-94
2023/11/25 02:35:21;;;;;;;5.47;1.40;;;2.90;79.70;;;;;;5113267;28;20043;-94
2023/11/25 02:37:49;;;;;;;4.72;1.23;;;2.90;79.30;;;;;;5130372;27;20050;-93
2023/11/25 02:40:17;;;;;;;4.45;0.98;;;2.90;79.20;;;;;;5107183;28;20058;-94
2023/11/25 02:42:48;;;;;;;5.72;1.40;;;2.90;78.90;;;;;;5116816;28;20412;-92
2023/11/25 02:45:19;;;;;;;3.73;0.90;;;3.00;78.60;;;;;;5116350;28;20092;-92
2023/11/25 02:47:48;;;;;;;4.03;1.02;;;3.00;77.60;;;;;;5116330;28;20035;-92
2023/11/25 02:50:18;;;;;;;6.93;1.10;;;2.90;77.60;;;;;;5099775;28;20108;-92
2023/11/25 02:52:45;;;;;;;4.18;1.00;;;2.90;77.20;;;;;;5116237;28;20043;-91
2023/11/25 02:55:12;;;;;;;4.68;1.23;;;2.90;76.60;;;;;;5099207;28;20048;-92
2023/11/25 02:57:43;;;;;;;4.20;1.10;;;2.90;77.00;;;;;;5116313;28;20122;-91
2023/11/25 03:01:01;;;;;;;5.45;1.27;;;2.90;76.10;;;;;;5115992;28;20035;-92
2023/11/25 03:03:17;;;;;;;6.90;1.10;;;2.90;76.50;;;;;;5110620;28;20166;-94
2023/11/25 03:05:46;;;;;;;4.55;1.20;;;2.90;76.30;;;;;;5116290;28;20067;-93
2023/11/25 03:08:14;;;;;;;3.17;1.05;;;2.90;75.80;;;;;;5116195;28;20405;-94
2023/11/25 03:10:41;;;;;;;6.73;1.40;;;2.90;75.10;;;;;;5116093;28;20049;-92
2023/11/25 03:13:10;;;;;;;3.00;0.98;;;3.00;75.20;;;;;;5115808;28;20101;-94
2023/11/25 03:15:39;;;;;;;4.97;0.90;;;3.00;75.00;;;;;;5098928;28;20501;-92
2023/11/25 03:18:06;;;;;;;3.67;1.15;;;3.00;74.60;;;;;;5116028;28;20086;-92
2023/11/25 03:20:35;;;;;;;3.80;0.90;;;3.00;74.20;;;;;;5108022;28;20036;-93
2023/11/25 03:23:06;;;;;;;3.93;1.00;;;3.00;74.10;;;;;;5112408;28;20040;-92
2023/11/25 03:25:34;;;;;;;3.33;1.08;;;3.00;74.30;;;;;;5112318;28;20046;-93
2023/11/25 03:28:06;;;;;;;3.45;0.80;;;3.00;74.70;;;;;;5095279;28;20135;-92
2023/11/25 03:30:33;;;;;;;3.75;0.80;;;3.20;74.40;;;;;;5112344;28;20044;-93
2023/11/25 03:33:00;;;;;;;6.15;1.17;;;3.20;74.00;;;;;;5112154;28;20048;-93
2023/11/25 03:35:29;;;;;;;3.77;0.90;;;3.20;74.20;;;;;;5095326;28;20515;-93
2023/11/25 03:37:56;;;;;;;2.65;0.70;;;3.20;73.90;;;;;;5111811;28;20048;-93
2023/11/25 03:40:23;;;;;;;5.78;1.15;;;3.30;73.80;;;;;;5094728;28;20047;-93
2023/11/25 03:42:50;;;;;;;3.75;0.90;;;3.30;73.60;;;;;;5111696;28;20452;-93
2023/11/25 03:45:17;;;;;;;3.58;0.90;;;3.20;74.10;;;;;;5094958;28;20496;-92
2023/11/25 03:47:44;;;;;;;4.10;0.83;;;3.30;74.00;;;;;;5111894;28;20070;-93
2023/11/25 03:50:12;;;;;;;5.40;1.00;;;3.20;74.00;;;;;;5111786;28;20074;-93
2023/11/25 03:52:43;;;;;;;6.50;1.08;;;3.20;74.20;;;;;;5093713;28;20044;-93
2023/11/25 03:55:10;;;;;;;3.45;0.68;;;3.10;74.70;;;;;;5111600;28;20054;-92
2023/11/25 03:57:39;;;;;;;3.75;1.05;;;3.10;74.80;;;;;;5111541;28;20044;-92
2023/11/25 04:00:14;;;;;;;2.67;0.80;;;3.00;74.90;;;;;;5111547;28;20058;-93
2023/11/25 04:02:48;;;;;;;3.95;0.90;;;3.10;75.00;;;;;;5111471;28;20067;-93
2023/11/25 04:05:18;;;;;;;3.17;1.00;;;3.00;75.00;;;;;;5111345;28;20082;-93
2023/11/25 04:07:46;;;;;;;3.22;0.90;;;3.00;74.90;;;;;;5094535;28;20047;-93
2023/11/25 04:10:15;;;;;;;3.78;0.88;;;3.10;74.90;;;;;;5111403;28;20044;-94
2023/11/25 04:12:45;;;;;;;4.60;1.00;;;3.20;74.80;;;;;;5094582;28;20048;-94
2023/11/25 04:15:16;;;;;;;5.05;1.00;;;3.20;74.40;;;;;;5111259;28;20048;-93
2023/11/25 04:17:43;;;;;;;5.72;1.20;;;3.20;74.70;;;;;;5094223;28;20044;-93
2023/11/25 04:20:14;;;;;;;2.58;0.93;;;3.20;74.50;;;;;;5111094;28;20132;-94
2023/11/25 04:22:48;;;;;;;5.90;1.48;;;3.20;74.40;;;;;;5094383;28;20048;-93
2023/11/25 04:25:15;;;;;;;3.77;1.00;;;3.20;74.40;;;;;;5111072;28;20040;-93
2023/11/25 04:27:46;;;;;;;4.43;1.08;;;3.10;74.20;;;;;;5111130;28;20378;-93
2023/11/25 04:30:15;;;;;;;5.25;1.30;;;3.10;74.50;;;;;;5093954;28;20058;-93
2023/11/25 04:32:44;;;;;;;5.40;1.05;;;3.10;74.60;;;;;;5094063;28;20052;-93
2023/11/25 04:35:13;;;;;;;4.32;0.98;;;3.10;74.90;;;;;;5094135;28;20143;-93
2023/11/25 04:37:44;;;;;;;6.33;1.20;;;3.00;75.80;;;;;;5111159;28;20062;-93
2023/11/25 04:40:12;;;;;;;6.32;1.40;;;2.90;77.30;;;;;;5093568;28;20060;-93
2023/11/25 04:42:43;;;;;;;4.63;0.98;;;2.80;78.30;;;;;;5110791;28;20048;-93
2023/11/25 04:45:18;;;;;;;5.25;1.20;;;2.80;78.60;;;;;;5110626;28;20047;-93
2023/11/25 04:47:48;;;;;;;4.55;1.20;;;2.80;78.50;;;;;;5093713;28;20539;-93
2023/11/25 04:50:16;;;;;;;4.20;1.27;;;2.90;78.90;;;;;;5110677;28;20079;-93
2023/11/25 04:52:44;;;;;;;5.97;1.30;;;2.90;79.30;;;;;;5110480;28;20059;-92
2023/11/25 04:55:12;;;;;;;4.53;1.30;;;2.90;79.70;;;;;;5110466;28;20070;-94
2023/11/25 04:57:40;;;;;;;4.07;1.20;;;2.80;80.40;;;;;;5110418;28;20044;-93
2023/11/25 05:00:13;;;;;;;4.07;1.30;;;2.80;80.70;;;;;;5093441;28;20058;-93
2023/11/25 05:02:44;;;;;;;4.77;1.40;;;2.70;81.30;;;;;;5110369;28;20043;-93
2023/11/25 05:05:12;;;;;;;4.50;1.70;;;2.70;81.50;;;;;;5093339;28;20048;-93
2023/11/25 05:07:40;;;;;;;4.20;1.33;;;2.70;81.60;;;;;;5110317;28;20036;-93
2023/11/25 05:10:09;;;;;;;3.63;0.70;;;2.50;81.90;;;;;;5093384;28;20067;-92
2023/11/25 05:12:37;;;;;;;2.10;0.50;;;2.30;82.00;;;;;;5093292;28;20083;-92
2023/11/25 05:15:06;;;;;;;2.10;0.60;;;2.10;81.60;;;;;;5110311;28;20048;-93
2023/11/25 05:17:33;;;;;;;2.45;0.60;;;1.90;81.90;;;;;;5093359;28;20051;-94
2023/11/25 05:20:01;;;;;;;4.95;0.80;;;1.60;82.00;;;;;;5109969;28;20140;-93
2023/11/25 05:22:28;;;;;;;2.65;0.70;;;1.70;82.20;;;;;;5093219;28;20044;-92
2023/11/25 05:24:55;;;;;;;3.47;0.88;;;1.70;81.50;;;;;;5110223;28;20138;-93
2023/11/25 05:27:23;;;;;;;5.30;0.80;;;1.60;81.60;;;;;;5110206;28;20412;-92
2023/11/25 05:29:50;;;;;;;6.15;1.05;;;1.60;81.60;;;;;;5110145;28;20047;-92
2023/11/25 05:32:17;;;;;;;4.50;1.35;;;1.60;81.80;;;;;;5110100;28;20401;-93
2023/11/25 05:34:44;;;;;;;5.50;1.70;;;1.80;81.90;;;;;;5110065;28;20084;-92
2023/11/25 05:37:13;;;;;;;5.80;1.92;;;1.90;81.60;;;;;;5109997;28;20059;-92
2023/11/25 05:39:40;;;;;;;6.77;1.93;;;1.80;81.70;;;;;;5110110;28;20070;-93
2023/11/25 05:42:08;;;;;;;6.50;2.00;;;1.80;81.80;;;;;;5109939;28;20044;-93
2023/11/25 05:44:35;;;;;;;5.75;1.92;;;1.70;82.00;;;;;;5109926;28;20040;-92
2023/11/25 05:47:03;;;;;;;6.15;2.17;;;1.70;82.40;;;;;;5109929;28;20059;-93
2023/11/25 05:49:30;;;;;;;7.75;2.60;;;1.80;82.20;;;;;;5109743;28;20063;-93
2023/11/25 05:51:57;;;;;;;8.40;2.30;;;1.90;81.80;;;;;;5109999;28;20152;-93
2023/11/25 05:54:27;;;;;;;8.27;2.78;;;1.80;81.80;;;;;;5109845;28;20105;-92
2023/11/25 05:56:54;;;;;;;7.47;2.35;;;1.80;81.80;;;;;;5109803;28;20044;-93
2023/11/25 05:59:21;;;;;;;6.55;2.30;;;1.90;81.80;;;;;;5109689;28;20079;-92
2023/11/25 06:01:49;;;;;;;6.90;2.30;;;2.00;81.40;;;;;;5110076;28;20122;-91
2023/11/25 06:04:16;;;;;;;6.10;2.20;;;2.00;81.10;;;;;;5098065;28;20466;-91
2023/11/25 06:06:48;;;;;;;10.07;2.58;;;2.10;81.00;;;;;;5113151;28;20050;-92
2023/11/25 06:09:15;;;;;;;7.93;2.47;;;2.00;81.10;;;;;;5112999;28;20039;-92
2023/11/25 06:11:42;;;;;;;8.35;3.13;;;2.00;80.90;;;;;;5112923;28;20455;-92
2023/11/25 06:14:12;;;;;;;7.93;2.75;;;1.90;80.90;;;;;;5076112;28;20430;-92
2023/11/25 06:16:41;;;;;;;9.67;3.07;;;1.90;80.90;;;;;;5105434;27;20048;-90
2023/11/25 06:19:10;;;;;;;12.95;3.25;;;1.80;80.70;;;;;;5099958;28;20443;-90
2023/11/25 06:21:38;;;;;;;7.07;2.35;;;1.70;80.90;;;;;;5116933;28;20055;-90
2023/11/25 06:24:07;;;;;;;7.88;2.83;;;1.70;81.20;;;;;;5100298;28;20043;-92
2023/11/25 06:26:35;;;;;;;6.97;2.17;;;1.60;81.40;;;;;;5099977;28;20061;-91
2023/11/25 06:29:02;;;;;;;9.17;2.73;;;1.60;81.30;;;;;;5116683;28;20134;-91
2023/11/25 06:31:31;;;;;;;9.57;3.28;;;1.70;81.10;;;;;;5116628;28;20043;-91
2023/11/25 06:34:00;;;;;;;7.43;2.80;;;1.70;81.20;;;;;;5116883;28;20047;-91
2023/11/25 06:36:28;;;;;;;9.50;3.53;;;1.80;81.00;;;;;;5096625;28;20048;-90
2023/11/25 06:38:55;;;;;;;9.43;3.45;;;1.90;80.80;;;;;;5095795;28;20048;-90
2023/11/25 06:41:25;;;;;;;8.93;3.03;;;1.90;80.40;;;;;;5099494;28;20035;-90
2023/11/25 06:43:52;;;;;;;10.07;3.20;;;1.80;80.30;;;;;;5116355;28;20161;-90
2023/11/25 06:46:22;;;;;;;9.43;3.85;;;1.80;80.50;;;;;;5099522;28;20051;-90
2023/11/25 06:48:52;;;;;;;10.27;3.45;;;1.70;80.00;;;;;;5099361;28;20074;-90
2023/11/25 06:51:19;;;;;;;10.85;4.70;;;1.70;80.30;;;;;;5099531;28;20040;-90
2023/11/25 06:53:46;;;;;;;8.67;3.90;;;1.70;80.50;;;;;;5116358;28;20519;-90
2023/11/25 07:35:29;;;;;;;11.13;3.60;;;1.60;80.20;;;;;;4862968;29;20067;-91
2023/11/25 07:37:56;;;;;;;12.02;4.32;;;1.70;79.90;;;;;;4846312;29;20424;-86
2023/11/25 07:40:24;;;;;;;9.13;3.65;;;1.50;79.50;;;;;;4861865;29;20453;-87
2023/11/25 07:42:51;;;;;;;10.20;3.73;;;1.50;79.30;;;;;;4851257;29;20050;-86
2023/11/25 07:45:19;;;;;;;9.85;3.60;;;1.60;79.00;;;;;;4843093;29;20049;-87
2023/11/25 07:47:46;;;;;;;11.20;3.60;;;1.70;78.50;;;;;;4849730;29;20508;-85
2023/11/25 07:50:14;;;;;;;11.82;3.70;;;1.70;78.30;;;;;;4843175;29;20516;-87
2023/11/25 07:52:41;;;;;;;9.00;2.38;;;1.60;77.80;;;;;;4858645;29;20065;-86
2023/11/25 07:55:08;;;;;;;11.80;3.73;;;1.40;77.50;;;;;;4843386;29;20057;-87
2023/11/25 07:57:37;;;;;;;13.93;3.17;;;1.40;78.10;;;;;;4865057;29;20057;-86
2023/11/25 08:00:06;;;;;;;8.13;2.58;;;1.50;77.90;;;;;;4838549;29;20045;-87
2023/11/25 08:02:40;;;;;;;13.68;3.65;;;1.40;77.30;;;;;;4861817;29;20511;-87
2023/11/25 08:05:08;;;;;;;10.55;3.90;;;1.30;77.90;;;;;;4847456;29;20046;-87
2023/11/25 08:07:35;;;;;;;9.23;2.90;;;1.30;78.10;;;;;;4861828;29;20049;-86
2023/11/25 08:10:04;;;;;;;8.77;3.35;;;1.40;77.90;;;;;;4864829;29;20124;-87
2023/11/25 08:12:31;;;;;;;12.60;4.50;;;1.40;77.90;;;;;;4861417;29;20522;-87
2023/11/25 08:14:58;;;;;;;8.85;3.63;;;1.50;77.80;;;;;;4853015;29;20050;-86
2023/11/25 08:17:27;;;;;;;10.80;4.85;;;1.70;77.50;;;;;;4839030;29;20049;-89
2023/11/25 08:19:54;;;;;;;10.00;4.37;;;1.90;77.20;;;;;;4848304;29;20077;-89
2023/11/25 08:22:21;;;;;;;11.20;4.38;;;2.00;76.70;;;;;;4856285;29;20526;-88
2023/11/25 08:24:48;;;;;;;11.07;3.80;;;2.10;76.60;;;;;;4847072;29;20050;-94
2023/11/25 08:27:15;;;;;;;9.98;3.70;;;2.20;76.20;;;;;;4846562;29;20042;-94
2023/11/25 08:29:42;;;;;;;9.32;3.72;;;2.30;75.70;;;;;;4847177;29;20057;-93
2023/11/25 08:32:09;;;;;;;9.90;3.50;;;2.40;75.90;;;;;;4850385;29;20061;-93
2023/11/25 08:34:36;;;;;;;11.13;4.05;;;2.50;75.70;;;;;;4846188;29;20461;-93
2023/11/25 08:37:05;;;;;;;12.75;4.45;;;2.60;74.90;;;;;;4857004;29;20054;-93
2023/11/25 08:39:33;;;;;;;10.25;4.05;;;2.60;75.10;;;;;;4854178;29;20141;-92
2023/11/25 08:41:59;;;;;;;10.63;4.15;;;2.70;74.90;;;;;;4854822;29;20504;-93
2023/11/25 08:44:27;;;;;;;12.90;4.73;;;2.80;74.70;;;;;;4844008;29;20145;-93
2023/11/25 08:46:56;;;;;;;12.30;4.43;;;2.90;74.50;;;;;;4855826;29;20041;-92
2023/11/25 08:49:24;;;;;;;11.70;4.55;;;3.00;74.30;;;;;;4845043;29;20057;-92
2023/11/25 08:51:51;;;;;;;14.88;5.35;;;3.00;74.40;;;;;;4861984;29;20049;-91
2023/11/25 08:54:18;;;;;;;13.82;5.45;;;3.00;74.30;;;;;;4839113;29;20105;-91
2023/11/25 08:56:46;;;;;;;14.37;4.97;;;3.00;74.20;;;;;;4844242;29;20050;-91
2023/11/25 08:59:17;;;;;;;12.73;4.88;;;3.00;74.10;;;;;;4856506;29;20746;-91
2023/11/25 09:01:47;;;;;;;24.10;8.98;;;3.00;74.20;;;;;;4852266;29;20488;-90
2023/11/25 09:04:19;;;;;;;17.58;6.47;;;3.00;73.70;;;;;;4861960;29;20056;-92
2023/11/25 09:06:48;;;;;;;15.45;5.10;;;2.80;72.60;;;;;;4846090;29;20493;-91
2023/11/25 09:09:17;;;;;;;14.77;4.10;;;2.70;73.20;;;;;;4854834;29;20050;-92
2023/11/25 09:11:44;;;;;;;13.90;4.85;;;2.70;73.30;;;;;;4843481;29;20140;-93
2023/11/25 09:14:14;;;;;;;11.88;4.20;;;2.90;73.20;;;;;;4848535;29;20045;-92
2023/11/25 09:16:42;;;;;;;12.32;3.17;;;2.80;73.10;;;;;;4847629;29;20053;-92
2023/11/25 09:19:11;;;;;;;9.35;2.85;;;2.80;73.00;;;;;;4835652;29;20060;-92
2023/11/25 09:21:38;;;;;;;9.63;3.30;;;2.80;73.10;;;;;;4848213;29;20038;-92
2023/11/25 09:24:06;;;;;;;8.63;3.50;;;2.80;73.40;;;;;;4845374;29;20555;-93
2023/11/25 09:26:33;;;;;;;10.27;4.00;;;2.80;73.40;;;;;;4855791;29;20049;-92
2023/11/25 09:29:00;;;;;;;12.45;5.47;;;2.80;73.70;;;;;;4855622;29;20411;-92
2023/11/25 09:31:28;;;;;;;12.15;4.25;;;2.80;73.90;;;;;;4850264;29;20075;-93
2023/11/25 09:33:56;;;;;;;10.47;4.60;;;2.50;74.00;;;;;;4842768;29;20089;-91
2023/11/25 09:36:24;;;;;;;11.75;4.22;;;2.50;74.70;;;;;;4827621;29;20072;-92
2023/11/25 09:38:52;;;;;;;12.25;4.18;;;2.50;74.30;;;;;;4848316;29;20041;-91
2023/11/25 09:41:19;;;;;;;9.73;4.03;;;2.50;74.30;;;;;;4853894;29;20117;-92
2023/11/25 09:43:46;;;;;;;11.18;4.13;;;2.60;74.90;;;;;;4851990;29;20050;-91
2023/11/25 09:46:14;;;;;;;8.87;3.43;;;2.70;74.30;;;;;;4843572;29;20145;-92
2023/11/25 09:48:41;;;;;;;8.95;4.05;;;2.60;73.90;;;;;;4848645;29;20069;-91
2023/11/25 09:51:09;;;;;;;9.13;3.38;;;2.70;74.10;;;;;;4850584;29;20069;-92
2023/11/25 09:53:37;;;;;;;8.38;3.40;;;3.00;74.30;;;;;;4845915;29;20061;-91
2023/11/25 09:56:06;;;;;;;9.52;2.92;;;3.30;72.80;;;;;;4851365;29;20076;-91
2023/11/25 09:58:35;;;;;;;6.47;2.63;;;3.30;72.40;;;;;;4856283;29;20057;-91
2023/11/25 10:01:07;;;;;;;8.27;2.75;;;3.20;72.50;;;;;;4839756;29;20077;-92
2023/11/25 10:03:37;;;;;;;9.02;3.22;;;3.20;72.10;;;;;;4844435;29;20264;-91
2023/11/25 10:06:05;;;;;;;7.00;3.20;;;3.00;72.40;;;;;;4863838;29;20524;-91
2023/11/25 10:08:34;;;;;;;8.55;3.20;;;3.00;73.30;;;;;;4846142;29;20049;-91
2023/11/25 10:11:08;;;;;;;8.33;3.10;;;3.00;72.60;;;;;;4852011;29;20053;-91
2023/11/25 10:13:39;;;;;;;12.93;5.68;;;3.00;73.10;;;;;;4849521;29;20049;-91
2023/11/25 10:16:08;;;;;;;10.35;4.28;;;3.00;73.10;;;;;;4860614;29;20045;-91
2023/11/25 10:18:39;;;;;;;10.80;4.30;;;3.10;73.40;;;;;;4848476;29;20123;-89
2023/11/25 10:21:07;;;;;;;10.25;3.95;;;3.20;73.50;;;;;;4858217;29;20568;-91
2023/11/25 10:23:35;;;;;;;9.73;4.27;;;3.30;73.00;;;;;;4855429;29;20045;-96
2023/11/25 10:26:10;;;;;;;10.98;4.68;;;3.20;72.40;;;;;;4864366;29;20053;-94
2023/11/25 10:28:37;;;;;;;8.05;2.30;;;3.20;72.40;;;;;;4848338;29;20046;-94
2023/11/25 10:31:05;;;;;;;8.60;2.72;;;3.00;71.70;;;;;;4849587;29;20109;-95
2023/11/25 10:33:34;;;;;;;8.93;2.95;;;3.00;72.60;;;;;;4849399;29;20046;-93
2023/11/25 10:36:04;;;;;;;6.47;1.83;;;3.00;72.70;;;;;;4863848;29;20053;-94
2023/11/25 10:38:32;;;;;;;6.97;1.88;;;3.00;72.60;;;;;;4849110;29;20050;-94
2023/11/25 10:41:02;;;;;;;8.20;2.55;;;3.00;71.60;;;;;;4849450;29;20049;-95
2023/11/25 10:43:31;;;;;;;9.48;3.00;;;3.00;71.70;;;;;;4868503;29;20113;-96
2023/11/25 10:46:06;;;;;;;9.18;3.08;;;3.00;71.90;;;;;;4849214;29;20049;-93
2023/11/25 10:48:34;;;;;;;7.13;2.50;;;3.00;71.80;;;;;;4853382;29;20052;-91
2023/11/25 10:51:02;;;;;;;5.95;2.03;;;3.00;71.40;;;;;;4852513;29;20487;-92
2023/11/25 10:53:30;;;;;;;7.57;2.47;;;2.90;71.60;;;;;;4857053;29;20137;-92
2023/11/25 10:55:59;;;;;;;6.40;1.92;;;2.80;73.00;;;;;;4851232;29;20045;-92
2023/11/25 10:58:29;;;;;;;8.02;2.08;;;2.70;73.30;;;;;;4845361;29;20057;-92
2023/11/25 11:01:00;;;;;;;8.53;3.27;;;2.40;75.10;;;;;;4816181;29;20580;-91
2023/11/25 11:03:50;;;;;;;9.52;3.28;;;2.40;76.00;;;;;;4863045;29;20059;-91
2023/11/25 11:06:28;;;;;;;9.45;3.70;;;2.40;76.80;;;;;;4845006;29;20048;-88
2023/11/25 11:08:59;;;;;;;9.65;2.90;;;2.40;76.70;;;;;;4861448;29;20136;-89
2023/11/25 11:11:45;;;;;;;6.43;2.42;;;2.40;76.70;;;;;;4855469;29;20033;-88
2023/11/25 11:14:14;;;;;;;9.33;3.00;;;2.50;75.90;;;;;;4852410;29;20465;-88
2023/11/25 11:17:10;;;;;;;8.73;3.22;;;2.70;76.20;;;;;;4854571;29;20077;-88
2023/11/25 11:19:41;;;;;;;8.13;3.55;;;2.80;75.90;;;;;;4845677;29;20064;-89
2023/11/25 11:22:13;;;;;;;9.50;3.10;;;2.90;75.30;;;;;;4840287;29;20485;-87
2023/11/25 11:24:49;;;;;;;7.80;2.50;;;2.80;73.90;;;;;;4856822;29;20049;-88
2023/11/25 11:27:27;;;;;;;7.73;2.97;;;2.80;73.90;;;;;;4850305;29;20068;-88
2023/11/25 11:30:08;;;;;;;6.50;2.50;;;2.80;73.20;;;;;;4846621;29;20121;-88
2023/11/25 11:32:37;;;;;;;7.85;2.03;;;2.80;73.60;;;;;;4844640;29;20053;-88
2023/11/25 11:35:09;;;;;;;9.50;2.92;;;2.70;73.00;;;;;;4847997;29;20097;-89
2023/11/25 11:37:39;;;;;;;11.98;3.00;;;2.70;73.40;;;;;;4837481;29;20405;-89
2023/11/25 11:40:07;;;;;;;10.93;3.97;;;2.70;72.90;;;;;;4842122;29;20095;-90
2023/11/25 11:42:35;;;;;;;15.40;5.07;;;2.70;73.60;;;;;;4839731;29;20133;-89
2023/11/25 11:45:26;;;;;;;15.63;8.10;;;2.60;73.50;;;;;;4840122;29;20081;-87
2023/11/25 11:48:02;;;;;;;11.75;4.55;;;2.70;73.60;;;;;;4838716;29;20055;-88
2023/11/25 11:50:31;;;;;;;14.20;4.80;;;2.70;73.20;;;;;;4840961;29;20050;-87
2023/11/25 11:53:02;;;;;;;18.63;6.27;;;2.70;73.60;;;;;;4857058;29;20045;-86
2023/11/25 11:55:54;;;;;;;12.38;4.78;;;2.80;73.40;;;;;;4856957;29;20092;-87
2023/11/25 11:58:26;;;;;;;9.55;3.85;;;2.80;73.30;;;;;;4841142;29;20058;-87
2023/11/25 12:01:03;;;;;;;11.55;3.80;;;2.90;72.70;;;;;;4853548;29;20049;-86
2023/11/25 12:03:31;;;;;;;9.55;2.65;;;2.90;72.50;;;;;;4840954;29;20122;-89
2023/11/25 12:05:59;;;;;;;13.90;3.87;;;2.70;71.90;;;;;;4842955;29;20042;-94
2023/11/25 12:08:27;;;;;;;10.02;3.10;;;2.70;73.00;;;;;;4842086;29;20098;-89
2023/11/25 12:10:55;;;;;;;10.05;3.55;;;2.60;72.70;;;;;;4833419;29;21616;-93
2023/11/25 12:13:30;;;;;;;7.00;2.50;;;2.50;73.40;;;;;;4839878;29;20111;-89
2023/11/25 12:15:59;;;;;;;6.32;2.47;;;2.50;73.30;;;;;;4856401;29;20137;-87
2023/11/25 12:18:32;;;;;;;6.03;2.03;;;2.50;73.60;;;;;;4835832;29;20141;-90
2023/11/25 12:21:01;;;;;;;10.35;2.80;;;2.20;74.20;;;;;;4842403;29;20045;-88
2023/11/25 12:23:29;;;;;;;9.75;3.55;;;2.10;74.40;;;;;;4830677;29;20046;-89
2023/11/25 12:26:22;;;;;;;10.00;3.85;;;2.20;74.60;;;;;;4842345;29;20045;-88
2023/11/25 12:28:50;;;;;;;10.85;3.08;;;2.40;74.40;;;;;;4842409;29;20106;-88
2023/11/25 12:31:17;;;;;;;9.10;3.10;;;2.50;73.80;;;;;;4827196;29;20471;-89
2023/11/25 12:33:44;;;;;;;8.85;3.40;;;2.50;74.00;;;;;;4851991;29;20532;-89
2023/11/25 12:36:11;;;;;;;8.95;3.05;;;2.50;73.10;;;;;;4842723;29;20462;-89
2023/11/25 12:38:39;;;;;;;11.18;3.30;;;2.60;73.40;;;;;;4847547;29;20172;-89
2023/11/25 12:41:12;;;;;;;9.27;2.60;;;2.60;73.20;;;;;;4860333;29;20107;-91
2023/11/25 12:44:02;;;;;;;6.83;2.20;;;2.50;73.10;;;;;;4853039;29;20049;-91
2023/11/25 12:46:29;;;;;;;7.93;1.95;;;2.40;74.40;;;;;;4851330;29;20045;-91
2023/11/25 12:49:16;;;;;;;8.65;2.60;;;2.40;74.90;;;;;;4848412;29;20101;-96
2023/11/25 12:51:43;;;;;;;6.57;1.77;;;2.50;75.20;;;;;;4854347;29;20173;-91
2023/11/25 12:54:17;;;;;;;9.65;2.08;;;2.50;74.40;;;;;;4852554;29;20049;-91
2023/11/25 12:56:54;;;;;;;7.17;2.80;;;2.50;74.20;;;;;;4847261;29;20083;-91
2023/11/25 12:59:34;;;;;;;7.15;2.50;;;2.60;73.80;;;;;;4852480;29;20060;-91
2023/11/25 13:02:09;;;;;;;8.63;3.33;;;2.60;73.90;;;;;;4835551;29;20045;-91
2023/11/25 13:04:49;;;;;;;8.65;3.00;;;2.50;73.60;;;;;;4856601;29;20045;-92
2023/11/25 13:07:32;;;;;;;9.18;3.95;;;2.50;74.00;;;;;;4852656;29;20050;-92
2023/11/25 13:10:00;;;;;;;12.23;5.10;;;2.50;73.30;;;;;;4852797;29;20115;-88
2023/11/25 13:12:29;;;;;;;8.02;3.17;;;2.50;73.40;;;;;;4848013;29;20052;-91
2023/11/25 13:14:56;;;;;;;15.30;5.10;;;2.50;72.90;;;;;;4849430;29;20576;-89
2023/11/25 13:17:24;;;;;;;11.30;3.80;;;2.50;72.50;;;;;;4852273;29;20049;-90
2023/11/25 13:19:51;;;;;;;7.47;2.72;;;2.60;72.40;;;;;;4861235;29;20101;-90
2023/11/25 13:22:19;;;;;;;10.07;3.43;;;2.60;72.40;;;;;;4848244;29;20119;-91
2023/11/25 13:24:48;;;;;;;8.02;2.58;;;2.60;72.10;;;;;;4830988;29;20053;-92
2023/11/25 13:27:16;;;;;;;7.40;2.80;;;2.60;72.10;;;;;;4852343;29;20056;-92
2023/11/25 13:29:43;;;;;;;8.05;2.95;;;2.70;72.20;;;;;;4850766;29;20045;-92
2023/11/25 13:32:11;;;;;;;8.95;3.17;;;2.60;72.10;;;;;;4842046;29;20089;-92
2023/11/25 13:34:41;;;;;;;8.70;3.10;;;2.70;72.40;;;;;;4842964;29;20207;-92
2023/11/25 13:37:08;;;;;;;10.80;4.30;;;2.70;71.70;;;;;;4848476;29;20136;-91
2023/11/25 13:39:35;;;;;;;12.18;3.60;;;2.90;71.80;;;;;;4831577;29;20047;-92
2023/11/25 13:42:07;;;;;;;7.53;2.97;;;2.80;71.00;;;;;;4866986;29;20136;-92
2023/11/25 13:44:35;;;;;;;7.20;3.10;;;2.70;72.10;;;;;;4852816;29;20461;-92
2023/11/25 13:47:02;;;;;;;5.87;1.80;;;2.80;72.20;;;;;;4856141;29;20400;-93
2023/11/25 13:49:29;;;;;;;7.82;2.25;;;2.80;71.60;;;;;;4856648;29;20073;-93
2023/11/25 13:51:57;;;;;;;7.07;1.90;;;2.70;71.40;;;;;;4853450;29;20152;-92
2023/11/25 13:54:28;;;;;;;6.90;1.98;;;2.50;71.60;;;;;;4856801;29;20046;-92
2023/11/25 13:56:56;;;;;;;7.78;2.17;;;2.50;71.40;;;;;;4851144;29;20488;-95
2023/11/25 13:59:23;;;;;;;6.10;2.10;;;2.50;72.10;;;;;;4864509;29;20049;-96
2023/11/25 14:01:50;;;;;;;7.03;2.15;;;2.50;71.90;;;;;;4863700;29;20049;-95
2023/11/25 14:04:19;;;;;;;7.15;1.98;;;2.50;71.80;;;;;;4864500;29;20448;-96
2023/11/25 14:06:50;;;;;;;7.38;2.00;;;2.50;71.70;;;;;;4864247;29;20056;-93
2023/11/25 14:09:17;;;;;;;16.48;5.70;;;2.40;72.00;;;;;;4849692;29;20523;-93
2023/11/25 14:11:45;;;;;;;20.73;8.10;;;2.30;72.70;;;;;;4848941;29;20052;-91
2023/11/25 14:14:26;;;;;;;14.75;5.90;;;2.30;73.20;;;;;;4834119;29;20076;-94
2023/11/25 14:16:55;;;;;;;10.02;3.10;;;2.40;73.20;;;;;;4853285;29;20458;-92
2023/11/25 14:19:22;;;;;;;8.77;2.75;;;2.40;73.70;;;;;;4827125;29;20065;-91
2023/11/25 14:21:49;;;;;;;7.75;2.70;;;2.40;73.90;;;;;;4827409;29;20465;-92
2023/11/25 14:24:16;;;;;;;8.43;3.03;;;2.40;74.00;;;;;;4827045;29;20050;-91
2023/11/25 14:26:43;;;;;;;8.65;3.22;;;2.30;74.60;;;;;;4836651;29;20045;-91
2023/11/25 14:29:11;;;;;;;7.95;3.10;;;2.40;74.80;;;;;;4845417;29;20053;-92
2023/11/25 14:31:38;;;;;;;8.15;2.50;;;2.30;74.90;;;;;;4846121;29;20056;-90
2023/11/25 14:34:05;;;;;;;8.73;2.70;;;2.20;75.00;;;;;;4845032;29;20054;-90
2023/11/25 14:36:32;;;;;;;7.00;2.97;;;2.20;74.90;;;;;;4846014;29;20144;-92
2023/11/25 14:38:59;;;;;;;8.38;3.33;;;2.20;75.10;;;;;;4861816;29;20049;-93
2023/11/25 14:41:26;;;;;;;7.55;3.00;;;2.20;75.10;;;;;;4854039;29;20515;-90
2023/11/25 14:43:53;;;;;;;8.32;2.80;;;2.40;75.10;;;;;;4851352;29;20045;-92
2023/11/25 14:46:21;;;;;;;6.93;2.67;;;2.40;74.60;;;;;;4852606;29;20054;-91
2023/11/25 14:48:49;;;;;;;7.43;2.50;;;2.50;74.40;;;;;;4853571;29;20057;-93
2023/11/25 14:51:16;;;;;;;7.88;2.38;;;2.50;74.00;;;;;;4848559;29;20560;-91
2023/11/25 14:53:43;;;;;;;7.55;2.50;;;2.50;73.90;;;;;;4849473;29;20063;-90
2023/11/25 14:56:26;;;;;;;9.30;3.08;;;2.50;73.90;;;;;;4860336;29;20500;-93
2023/11/25 14:59:05;;;;;;;8.43;3.45;;;2.40;73.80;;;;;;4848128;29;20053;-89
2023/11/25 15:01:32;;;;;;;10.53;3.13;;;2.40;73.70;;;;;;4850029;29;20050;-93
2023/11/25 15:03:59;;;;;;;12.65;2.83;;;2.30;74.20;;;;;;4848135;29;20049;-92
2023/11/25 15:06:27;;;;;;;8.25;2.83;;;2.40;74.00;;;;;;4834178;29;20046;-93
2023/11/25 15:08:54;;;;;;;10.48;3.10;;;2.40;74.40;;;;;;4851269;29;20049;-95
2023/11/25 15:11:21;;;;;;;7.95;2.70;;;2.40;74.20;;;;;;4848354;29;20149;-95
2023/11/25 15:13:48;;;;;;;10.10;3.23;;;2.40;74.10;;;;;;4851341;29;20069;-96
2023/11/25 15:16:17;;;;;;;9.35;2.50;;;2.40;74.00;;;;;;4860262;29;20136;-91
2023/11/25 15:18:44;;;;;;;6.53;2.42;;;2.30;74.20;;;;;;4849090;29;20105;-93